メインページ
METAR-TAF:

METAR-TAF

空港 :

グランドラピッズ, ミシガン州, アメリカ合衆国

緯度: 42-52-51N, 経度: 085-31-22W, 海抜: 242m

現時点の気象観測

当レポートは14分前の06:18(UTC)に作成
西の風 10kt、最大23ktの突風を伴う
気温 -2°C
湿度 86%
気圧 1008 hPa
視程: 8.0km
高度1000ftの曇り

METAR: KGRR 150618Z AUTO 28010G23KT 5SM BR OVC010 M02/M04 A2977 RMK AO2 I1000 T10171039 $

時間: 01:32 (06:32 UTC)

予報

当レポートは9分前の06:23(UTC)に作成
予報は15日の 06時(UTC)から 16日の 06時(UTC)まで有効
西の風 10kt
視程: 8.0km
高度900ftの曇り
(弱い) 着氷性, 霧雨, 靄
15日の 0700時(UTC)から
西の風 10kt
視程: 6.4km
高度1800ftの曇り
弱いにわか雪, 靄
15日の 1900時(UTC)から
西の風 7kt
視程: 10km
高度3500ftの千切れ雲あり
16日の 0300時(UTC)から
変向風 3kt
視程: 10km
高度5000ftの千切れ雲あり

TAF: KGRR 150623Z 1506/1606 27010KT 5SM -FZDZ BR OVC009 FM150700 28010KT 4SM -SHSN BR OVC018 FM151900 27007KT P6SM BKN035 FM160300 VRB03KT P6SM BKN050

4,000以上の空港の気象観測と天気予報(METAR報とTAF報)

利用可能な観測所は地図上に黄色い丸と赤い丸で示す。

丸の上にカーソルを重ねると観測所名を参照できる。

次にクリックすると気象観測と天気予報を参照できる。

マップの切り替え:黒色「×」印の緑ボタンをクリックして拡大、「-」印の緑ボタンをクリックして縮小、緑色の三角印をクリックして隣りの地図に切り替え


METAR-TAF: